sensor_id;sensor_type;location;lat;lon;timestamp;P1;durP1;ratioP1;P2;durP2;ratioP2
7511;SDS011;9999;48.780;9.146;2022-08-18T00:00:14;2.42;;;2.10;;
7511;SDS011;9999;48.780;9.146;2022-08-18T00:02:43;2.22;;;2.00;;
7511;SDS011;9999;48.780;9.146;2022-08-18T00:05:09;2.17;;;1.90;;
7511;SDS011;9999;48.780;9.146;2022-08-18T00:07:37;3.63;;;2.22;;
7511;SDS011;9999;48.780;9.146;2022-08-18T00:10:05;3.00;;;1.95;;
7511;SDS011;9999;48.780;9.146;2022-08-18T00:12:33;2.30;;;2.13;;
7511;SDS011;9999;48.780;9.146;2022-08-18T00:15:03;2.17;;;1.80;;
7511;SDS011;9999;48.780;9.146;2022-08-18T00:17:31;2.58;;;2.03;;
7511;SDS011;9999;48.780;9.146;2022-08-18T00:20:00;2.47;;;2.05;;
7511;SDS011;9999;48.780;9.146;2022-08-18T00:22:28;2.20;;;1.83;;
7511;SDS011;9999;48.780;9.146;2022-08-18T00:24:55;2.42;;;2.22;;
7511;SDS011;9999;48.780;9.146;2022-08-18T00:27:24;2.72;;;2.35;;
7511;SDS011;9999;48.780;9.146;2022-08-18T00:29:53;5.40;;;2.33;;
7511;SDS011;9999;48.780;9.146;2022-08-18T00:32:22;2.15;;;1.95;;
7511;SDS011;9999;48.780;9.146;2022-08-18T00:34:50;3.30;;;2.75;;
7511;SDS011;9999;48.780;9.146;2022-08-18T00:37:19;2.40;;;2.20;;
7511;SDS011;9999;48.780;9.146;2022-08-18T00:39:48;9.38;;;2.45;;
7511;SDS011;9999;48.780;9.146;2022-08-18T00:42:17;1.90;;;1.50;;
7511;SDS011;9999;48.780;9.146;2022-08-18T00:44:45;2.95;;;2.53;;
7511;SDS011;9999;48.780;9.146;2022-08-18T00:47:13;3.88;;;2.35;;
7511;SDS011;9999;48.780;9.146;2022-08-18T00:49:40;2.45;;;1.77;;
7511;SDS011;9999;48.780;9.146;2022-08-18T00:52:10;2.10;;;1.88;;
7511;SDS011;9999;48.780;9.146;2022-08-18T00:54:40;2.35;;;1.73;;
7511;SDS011;9999;48.780;9.146;2022-08-18T00:57:09;2.30;;;1.70;;
7511;SDS011;9999;48.780;9.146;2022-08-18T00:59:38;2.40;;;2.00;;
7511;SDS011;9999;48.780;9.146;2022-08-18T01:02:09;2.13;;;1.92;;
7511;SDS011;9999;48.780;9.146;2022-08-18T01:04:41;1.98;;;1.88;;
7511;SDS011;9999;48.780;9.146;2022-08-18T01:07:13;2.28;;;2.08;;
7511;SDS011;9999;48.780;9.146;2022-08-18T01:09:46;1.60;;;1.50;;
7511;SDS011;9999;48.780;9.146;2022-08-18T01:12:13;2.03;;;1.83;;
7511;SDS011;9999;48.780;9.146;2022-08-18T01:14:40;2.13;;;1.95;;
7511;SDS011;9999;48.780;9.146;2022-08-18T01:17:07;2.40;;;2.20;;
7511;SDS011;9999;48.780;9.146;2022-08-18T01:19:52;2.67;;;1.92;;
7511;SDS011;9999;48.780;9.146;2022-08-18T01:22:41;2.17;;;1.73;;
7511;SDS011;9999;48.780;9.146;2022-08-18T01:25:16;3.17;;;2.25;;
7511;SDS011;9999;48.780;9.146;2022-08-18T01:28:02;2.20;;;1.85;;
7511;SDS011;9999;48.780;9.146;2022-08-18T01:30:30;2.05;;;1.67;;
7511;SDS011;9999;48.780;9.146;2022-08-18T01:33:09;1.60;;;1.50;;
7511;SDS011;9999;48.780;9.146;2022-08-18T01:35:36;2.65;;;1.92;;
7511;SDS011;9999;48.780;9.146;2022-08-18T01:38:06;2.30;;;2.10;;
7511;SDS011;9999;48.780;9.146;2022-08-18T01:40:33;2.10;;;1.55;;
7511;SDS011;9999;48.780;9.146;2022-08-18T01:43:00;3.47;;;2.28;;
7511;SDS011;9999;48.780;9.146;2022-08-18T01:45:28;5.07;;;2.15;;
7511;SDS011;9999;48.780;9.146;2022-08-18T01:47:57;2.72;;;2.30;;
7511;SDS011;9999;48.780;9.146;2022-08-18T01:50:24;2.20;;;1.80;;
7511;SDS011;9999;48.780;9.146;2022-08-18T01:52:51;2.25;;;2.05;;
7511;SDS011;9999;48.780;9.146;2022-08-18T01:55:19;3.80;;;2.35;;
7511;SDS011;9999;48.780;9.146;2022-08-18T01:57:46;2.33;;;1.90;;
7511;SDS011;9999;48.780;9.146;2022-08-18T02:00:14;2.08;;;1.90;;
7511;SDS011;9999;48.780;9.146;2022-08-18T02:02:42;2.92;;;2.10;;
7511;SDS011;9999;48.780;9.146;2022-08-18T02:05:11;3.03;;;2.03;;
7511;SDS011;9999;48.780;9.146;2022-08-18T02:07:42;2.80;;;2.05;;
7511;SDS011;9999;48.780;9.146;2022-08-18T02:10:09;1.63;;;1.52;;
7511;SDS011;9999;48.780;9.146;2022-08-18T02:12:38;3.40;;;2.08;;
7511;SDS011;9999;48.780;9.146;2022-08-18T02:15:06;2.75;;;1.85;;
7511;SDS011;9999;48.780;9.146;2022-08-18T02:17:35;1.75;;;1.65;;
7511;SDS011;9999;48.780;9.146;2022-08-18T02:20:03;2.97;;;2.15;;
7511;SDS011;9999;48.780;9.146;2022-08-18T02:22:30;2.78;;;2.03;;
7511;SDS011;9999;48.780;9.146;2022-08-18T02:24:57;2.95;;;1.85;;
7511;SDS011;9999;48.780;9.146;2022-08-18T02:27:25;2.28;;;2.08;;
7511;SDS011;9999;48.780;9.146;2022-08-18T02:29:54;2.08;;;1.88;;
7511;SDS011;9999;48.780;9.146;2022-08-18T02:32:21;2.83;;;2.20;;
7511;SDS011;9999;48.780;9.146;2022-08-18T02:34:48;2.38;;;2.05;;
7511;SDS011;9999;48.780;9.146;2022-08-18T02:37:14;2.92;;;2.08;;
7511;SDS011;9999;48.780;9.146;2022-08-18T02:39:41;2.33;;;1.77;;
7511;SDS011;9999;48.780;9.146;2022-08-18T02:42:08;2.65;;;2.10;;
7511;SDS011;9999;48.780;9.146;2022-08-18T02:44:35;2.47;;;2.28;;
7511;SDS011;9999;48.780;9.146;2022-08-18T02:47:03;6.47;;;1.92;;
7511;SDS011;9999;48.780;9.146;2022-08-18T02:49:30;2.70;;;2.10;;
7511;SDS011;9999;48.780;9.146;2022-08-18T02:51:56;2.38;;;2.13;;
7511;SDS011;9999;48.780;9.146;2022-08-18T02:54:24;2.42;;;2.22;;
7511;SDS011;9999;48.780;9.146;2022-08-18T02:56:51;3.35;;;2.20;;
7511;SDS011;9999;48.780;9.146;2022-08-18T02:59:19;11.85;;;3.33;;
7511;SDS011;9999;48.780;9.146;2022-08-18T03:01:49;2.25;;;2.05;;
7511;SDS011;9999;48.780;9.146;2022-08-18T03:04:20;2.55;;;2.05;;
7511;SDS011;9999;48.780;9.146;2022-08-18T03:06:49;4.10;;;2.10;;
7511;SDS011;9999;48.780;9.146;2022-08-18T03:09:16;2.42;;;1.77;;
7511;SDS011;9999;48.780;9.146;2022-08-18T03:11:43;2.13;;;1.92;;
7511;SDS011;9999;48.780;9.146;2022-08-18T03:14:11;3.38;;;2.75;;
7511;SDS011;9999;48.780;9.146;2022-08-18T03:16:39;2.42;;;2.08;;
7511;SDS011;9999;48.780;9.146;2022-08-18T03:19:08;3.40;;;1.95;;
7511;SDS011;9999;48.780;9.146;2022-08-18T03:21:42;2.65;;;2.22;;
7511;SDS011;9999;48.780;9.146;2022-08-18T03:24:10;2.83;;;2.22;;
7511;SDS011;9999;48.780;9.146;2022-08-18T03:26:39;2.50;;;2.03;;
7511;SDS011;9999;48.780;9.146;2022-08-18T03:29:06;2.38;;;2.13;;
7511;SDS011;9999;48.780;9.146;2022-08-18T03:31:33;2.30;;;1.92;;
7511;SDS011;9999;48.780;9.146;2022-08-18T03:34:02;2.85;;;2.22;;
7511;SDS011;9999;48.780;9.146;2022-08-18T03:36:31;3.20;;;2.35;;
7511;SDS011;9999;48.780;9.146;2022-08-18T03:39:02;2.50;;;1.88;;
7511;SDS011;9999;48.780;9.146;2022-08-18T03:41:30;2.13;;;1.92;;
7511;SDS011;9999;48.780;9.146;2022-08-18T03:43:57;1.90;;;1.80;;
7511;SDS011;9999;48.780;9.146;2022-08-18T03:46:25;2.78;;;2.58;;
7511;SDS011;9999;48.780;9.146;2022-08-18T03:48:54;2.22;;;1.83;;
7511;SDS011;9999;48.780;9.146;2022-08-18T03:51:23;2.47;;;1.92;;
7511;SDS011;9999;48.780;9.146;2022-08-18T03:53:51;6.43;;;2.00;;
7511;SDS011;9999;48.780;9.146;2022-08-18T03:56:21;2.10;;;1.88;;
7511;SDS011;9999;48.780;9.146;2022-08-18T03:58:50;3.88;;;2.42;;
7511;SDS011;9999;48.780;9.146;2022-08-18T04:01:19;3.03;;;2.20;;
7511;SDS011;9999;48.780;9.146;2022-08-18T04:03:48;2.58;;;2.05;;
7511;SDS011;9999;48.780;9.146;2022-08-18T04:06:19;2.50;;;1.90;;
7511;SDS011;9999;48.780;9.146;2022-08-18T04:08:49;2.22;;;1.83;;
7511;SDS011;9999;48.780;9.146;2022-08-18T04:11:17;2.35;;;2.00;;
7511;SDS011;9999;48.780;9.146;2022-08-18T04:13:45;2.40;;;2.15;;
7511;SDS011;9999;48.780;9.146;2022-08-18T04:16:12;2.17;;;1.98;;
7511;SDS011;9999;48.780;9.146;2022-08-18T04:18:39;2.78;;;1.80;;
7511;SDS011;9999;48.780;9.146;2022-08-18T04:21:07;1.95;;;1.80;;
7511;SDS011;9999;48.780;9.146;2022-08-18T04:23:36;2.35;;;2.00;;
7511;SDS011;9999;48.780;9.146;2022-08-18T04:26:05;3.03;;;1.98;;
7511;SDS011;9999;48.780;9.146;2022-08-18T04:28:33;2.65;;;1.77;;
7511;SDS011;9999;48.780;9.146;2022-08-18T04:31:05;3.08;;;2.17;;
7511;SDS011;9999;48.780;9.146;2022-08-18T04:33:34;2.40;;;1.98;;
7511;SDS011;9999;48.780;9.146;2022-08-18T04:36:05;2.15;;;2.00;;
7511;SDS011;9999;48.780;9.146;2022-08-18T04:38:34;3.50;;;2.53;;
7511;SDS011;9999;48.780;9.146;2022-08-18T04:41:00;3.42;;;2.47;;
7511;SDS011;9999;48.780;9.146;2022-08-18T04:43:27;3.40;;;2.05;;
7511;SDS011;9999;48.780;9.146;2022-08-18T04:45:55;2.53;;;2.03;;
7511;SDS011;9999;48.780;9.146;2022-08-18T04:48:27;2.78;;;2.35;;
7511;SDS011;9999;48.780;9.146;2022-08-18T04:51:01;2.60;;;2.05;;
7511;SDS011;9999;48.780;9.146;2022-08-18T04:53:30;2.65;;;2.20;;
7511;SDS011;9999;48.780;9.146;2022-08-18T04:56:15;2.90;;;1.95;;
7511;SDS011;9999;48.780;9.146;2022-08-18T04:58:50;3.25;;;2.72;;
7511;SDS011;9999;48.780;9.146;2022-08-18T05:01:18;1.83;;;1.70;;
7511;SDS011;9999;48.780;9.146;2022-08-18T05:03:48;2.17;;;1.90;;
7511;SDS011;9999;48.780;9.146;2022-08-18T05:06:16;2.38;;;2.15;;
7511;SDS011;9999;48.780;9.146;2022-08-18T05:08:44;4.95;;;2.35;;
7511;SDS011;9999;48.780;9.146;2022-08-18T05:11:12;2.53;;;2.30;;
7511;SDS011;9999;48.780;9.146;2022-08-18T05:13:39;2.72;;;2.50;;
7511;SDS011;9999;48.780;9.146;2022-08-18T05:16:07;3.58;;;2.45;;
7511;SDS011;9999;48.780;9.146;2022-08-18T05:18:34;5.32;;;2.15;;
7511;SDS011;9999;48.780;9.146;2022-08-18T05:21:04;4.25;;;2.17;;
7511;SDS011;9999;48.780;9.146;2022-08-18T05:23:32;3.40;;;2.30;;
7511;SDS011;9999;48.780;9.146;2022-08-18T05:26:00;2.22;;;2.03;;
7511;SDS011;9999;48.780;9.146;2022-08-18T05:28:28;3.28;;;2.55;;
7511;SDS011;9999;48.780;9.146;2022-08-18T05:30:55;2.42;;;2.15;;
7511;SDS011;9999;48.780;9.146;2022-08-18T05:33:22;2.45;;;1.95;;
7511;SDS011;9999;48.780;9.146;2022-08-18T05:35:50;2.47;;;2.13;;
7511;SDS011;9999;48.780;9.146;2022-08-18T05:41:09;2.30;;;1.98;;
7511;SDS011;9999;48.780;9.146;2022-08-18T05:43:40;2.67;;;2.47;;
7511;SDS011;9999;48.780;9.146;2022-08-18T05:46:09;2.60;;;2.40;;
7511;SDS011;9999;48.780;9.146;2022-08-18T05:48:36;5.18;;;2.28;;
7511;SDS011;9999;48.780;9.146;2022-08-18T05:51:13;2.55;;;2.15;;
7511;SDS011;9999;48.780;9.146;2022-08-18T05:53:44;2.72;;;2.50;;
7511;SDS011;9999;48.780;9.146;2022-08-18T05:56:31;3.13;;;2.40;;
7511;SDS011;9999;48.780;9.146;2022-08-18T05:59:13;2.80;;;2.47;;
7511;SDS011;9999;48.780;9.146;2022-08-18T06:01:45;3.35;;;2.53;;
7511;SDS011;9999;48.780;9.146;2022-08-18T06:04:19;2.10;;;1.90;;
7511;SDS011;9999;48.780;9.146;2022-08-18T06:07:06;1.95;;;1.85;;
7511;SDS011;9999;48.780;9.146;2022-08-18T06:09:39;2.47;;;2.10;;
7511;SDS011;9999;48.780;9.146;2022-08-18T06:12:18;3.55;;;3.00;;
7511;SDS011;9999;48.780;9.146;2022-08-18T06:14:49;2.95;;;2.10;;
7511;SDS011;9999;48.780;9.146;2022-08-18T06:17:29;3.17;;;2.85;;
7511;SDS011;9999;48.780;9.146;2022-08-18T06:20:05;1.95;;;1.70;;
7511;SDS011;9999;48.780;9.146;2022-08-18T06:22:39;3.00;;;2.50;;
7511;SDS011;9999;48.780;9.146;2022-08-18T06:25:19;8.32;;;2.53;;
7511;SDS011;9999;48.780;9.146;2022-08-18T06:27:52;2.63;;;2.38;;
7511;SDS011;9999;48.780;9.146;2022-08-18T06:30:23;3.17;;;2.22;;
7511;SDS011;9999;48.780;9.146;2022-08-18T06:33:07;5.20;;;2.38;;
7511;SDS011;9999;48.780;9.146;2022-08-18T06:35:43;2.45;;;2.25;;
7511;SDS011;9999;48.780;9.146;2022-08-18T06:38:20;4.40;;;2.80;;
7511;SDS011;9999;48.780;9.146;2022-08-18T06:41:12;2.38;;;2.17;;
7511;SDS011;9999;48.780;9.146;2022-08-18T06:43:43;3.35;;;2.38;;
7511;SDS011;9999;48.780;9.146;2022-08-18T06:46:22;2.42;;;2.00;;
7511;SDS011;9999;48.780;9.146;2022-08-18T06:48:58;4.80;;;2.47;;
7511;SDS011;9999;48.780;9.146;2022-08-18T06:51:29;2.85;;;2.22;;
7511;SDS011;9999;48.780;9.146;2022-08-18T06:53:57;2.78;;;2.58;;
7511;SDS011;9999;48.780;9.146;2022-08-18T06:56:32;3.08;;;2.67;;
7511;SDS011;9999;48.780;9.146;2022-08-18T06:59:13;2.65;;;2.45;;
7511;SDS011;9999;48.780;9.146;2022-08-18T07:01:46;8.23;;;4.03;;
7511;SDS011;9999;48.780;9.146;2022-08-18T07:04:29;3.03;;;2.58;;
7511;SDS011;9999;48.780;9.146;2022-08-18T07:07:11;4.85;;;2.13;;
7511;SDS011;9999;48.780;9.146;2022-08-18T07:09:42;2.53;;;2.03;;
7511;SDS011;9999;48.780;9.146;2022-08-18T07:12:17;3.50;;;2.45;;
7511;SDS011;9999;48.780;9.146;2022-08-18T07:14:47;3.20;;;2.25;;
7511;SDS011;9999;48.780;9.146;2022-08-18T07:17:20;2.90;;;1.80;;
7511;SDS011;9999;48.780;9.146;2022-08-18T07:19:57;2.92;;;2.03;;
7511;SDS011;9999;48.780;9.146;2022-08-18T07:22:27;2.47;;;2.22;;
7511;SDS011;9999;48.780;9.146;2022-08-18T07:24:55;4.22;;;2.85;;
7511;SDS011;9999;48.780;9.146;2022-08-18T07:27:45;2.58;;;2.28;;
7511;SDS011;9999;48.780;9.146;2022-08-18T07:30:23;3.53;;;2.22;;
7511;SDS011;9999;48.780;9.146;2022-08-18T07:32:54;2.53;;;2.25;;
7511;SDS011;9999;48.780;9.146;2022-08-18T07:35:27;2.13;;;1.92;;
7511;SDS011;9999;48.780;9.146;2022-08-18T07:38:00;2.97;;;2.22;;
7511;SDS011;9999;48.780;9.146;2022-08-18T07:40:32;4.15;;;2.35;;
7511;SDS011;9999;48.780;9.146;2022-08-18T07:43:05;5.75;;;2.60;;
7511;SDS011;9999;48.780;9.146;2022-08-18T07:45:39;2.35;;;2.17;;
7511;SDS011;9999;48.780;9.146;2022-08-18T07:48:09;2.38;;;2.17;;
7511;SDS011;9999;48.780;9.146;2022-08-18T07:50:39;2.95;;;2.42;;
7511;SDS011;9999;48.780;9.146;2022-08-18T07:53:17;4.15;;;2.13;;
7511;SDS011;9999;48.780;9.146;2022-08-18T07:55:52;2.13;;;1.98;;
7511;SDS011;9999;48.780;9.146;2022-08-18T07:58:28;2.78;;;2.20;;
7511;SDS011;9999;48.780;9.146;2022-08-18T08:01:00;2.92;;;2.50;;
7511;SDS011;9999;48.780;9.146;2022-08-18T08:03:33;2.83;;;2.45;;
7511;SDS011;9999;48.780;9.146;2022-08-18T08:06:07;2.10;;;1.77;;
7511;SDS011;9999;48.780;9.146;2022-08-18T08:08:46;3.38;;;2.30;;
7511;SDS011;9999;48.780;9.146;2022-08-18T08:11:25;2.83;;;2.05;;
7511;SDS011;9999;48.780;9.146;2022-08-18T08:14:10;3.80;;;2.90;;
7511;SDS011;9999;48.780;9.146;2022-08-18T08:16:47;3.70;;;2.63;;
7511;SDS011;9999;48.780;9.146;2022-08-18T08:19:23;3.15;;;2.58;;
7511;SDS011;9999;48.780;9.146;2022-08-18T08:22:07;3.13;;;2.72;;
7511;SDS011;9999;48.780;9.146;2022-08-18T08:24:39;2.90;;;1.92;;
7511;SDS011;9999;48.780;9.146;2022-08-18T08:27:14;2.60;;;2.40;;
7511;SDS011;9999;48.780;9.146;2022-08-18T08:29:52;2.63;;;1.88;;
7511;SDS011;9999;48.780;9.146;2022-08-18T08:32:28;4.80;;;2.25;;
7511;SDS011;9999;48.780;9.146;2022-08-18T08:35:00;2.22;;;1.95;;
7511;SDS011;9999;48.780;9.146;2022-08-18T08:37:32;4.45;;;3.08;;
7511;SDS011;9999;48.780;9.146;2022-08-18T08:40:07;3.67;;;2.75;;
7511;SDS011;9999;48.780;9.146;2022-08-18T08:42:41;2.78;;;2.58;;
7511;SDS011;9999;48.780;9.146;2022-08-18T08:45:15;2.95;;;2.70;;
7511;SDS011;9999;48.780;9.146;2022-08-18T08:47:49;3.50;;;2.22;;
7511;SDS011;9999;48.780;9.146;2022-08-18T08:50:25;2.28;;;2.08;;
7511;SDS011;9999;48.780;9.146;2022-08-18T08:52:56;3.25;;;2.95;;
7511;SDS011;9999;48.780;9.146;2022-08-18T08:55:29;7.60;;;2.83;;
7511;SDS011;9999;48.780;9.146;2022-08-18T08:58:01;3.15;;;2.50;;
7511;SDS011;9999;48.780;9.146;2022-08-18T09:00:43;6.40;;;2.85;;
7511;SDS011;9999;48.780;9.146;2022-08-18T09:03:15;3.80;;;2.08;;
7511;SDS011;9999;48.780;9.146;2022-08-18T09:05:51;2.95;;;2.42;;
7511;SDS011;9999;48.780;9.146;2022-08-18T09:08:32;2.30;;;2.10;;
7511;SDS011;9999;48.780;9.146;2022-08-18T09:11:19;3.42;;;2.20;;
7511;SDS011;9999;48.780;9.146;2022-08-18T09:17:09;3.63;;;2.92;;
7511;SDS011;9999;48.780;9.146;2022-08-18T09:19:56;2.65;;;2.28;;
7511;SDS011;9999;48.780;9.146;2022-08-18T09:22:34;5.07;;;2.70;;
7511;SDS011;9999;48.780;9.146;2022-08-18T09:25:10;4.35;;;2.95;;
7511;SDS011;9999;48.780;9.146;2022-08-18T09:28:09;4.07;;;2.75;;
7511;SDS011;9999;48.780;9.146;2022-08-18T09:30:45;3.60;;;2.70;;
7511;SDS011;9999;48.780;9.146;2022-08-18T09:33:19;3.85;;;3.17;;
7511;SDS011;9999;48.780;9.146;2022-08-18T09:35:54;4.53;;;3.00;;
7511;SDS011;9999;48.780;9.146;2022-08-18T09:38:45;3.22;;;2.45;;
7511;SDS011;9999;48.780;9.146;2022-08-18T09:41:34;4.28;;;3.15;;
7511;SDS011;9999;48.780;9.146;2022-08-18T09:44:10;3.38;;;3.08;;
7511;SDS011;9999;48.780;9.146;2022-08-18T09:46:49;7.15;;;3.40;;
7511;SDS011;9999;48.780;9.146;2022-08-18T09:55:36;4.97;;;3.40;;
7511;SDS011;9999;48.780;9.146;2022-08-18T09:58:20;4.10;;;3.50;;
7511;SDS011;9999;48.780;9.146;2022-08-18T10:06:54;7.50;;;2.78;;
7511;SDS011;9999;48.780;9.146;2022-08-18T10:09:43;3.80;;;2.55;;
7511;SDS011;9999;48.780;9.146;2022-08-18T10:12:24;3.63;;;3.10;;
7511;SDS011;9999;48.780;9.146;2022-08-18T10:17:58;3.53;;;2.80;;
7511;SDS011;9999;48.780;9.146;2022-08-18T10:20:48;4.53;;;2.53;;
7511;SDS011;9999;48.780;9.146;2022-08-18T10:32:23;5.47;;;2.80;;
7511;SDS011;9999;48.780;9.146;2022-08-18T10:35:02;5.68;;;3.25;;
7511;SDS011;9999;48.780;9.146;2022-08-18T10:37:31;4.18;;;2.83;;
7511;SDS011;9999;48.780;9.146;2022-08-18T10:40:12;3.92;;;3.20;;
7511;SDS011;9999;48.780;9.146;2022-08-18T10:42:43;4.53;;;3.33;;
7511;SDS011;9999;48.780;9.146;2022-08-18T10:45:18;4.07;;;3.35;;
7511;SDS011;9999;48.780;9.146;2022-08-18T10:47:57;4.78;;;3.20;;
7511;SDS011;9999;48.780;9.146;2022-08-18T10:50:26;3.92;;;2.92;;
7511;SDS011;9999;48.780;9.146;2022-08-18T10:53:00;4.05;;;3.40;;
7511;SDS011;9999;48.780;9.146;2022-08-18T11:01:18;5.75;;;2.67;;
7511;SDS011;9999;48.780;9.146;2022-08-18T11:03:59;4.07;;;2.88;;
7511;SDS011;9999;48.780;9.146;2022-08-18T11:06:35;4.75;;;3.67;;
7511;SDS011;9999;48.780;9.146;2022-08-18T11:09:03;4.20;;;2.95;;
7511;SDS011;9999;48.780;9.146;2022-08-18T11:11:33;3.67;;;3.00;;
7511;SDS011;9999;48.780;9.146;2022-08-18T11:14:04;3.05;;;2.70;;
7511;SDS011;9999;48.780;9.146;2022-08-18T11:16:42;5.10;;;3.22;;
7511;SDS011;9999;48.780;9.146;2022-08-18T11:19:16;2.47;;;2.28;;
7511;SDS011;9999;48.780;9.146;2022-08-18T11:21:47;3.50;;;3.20;;
7511;SDS011;9999;48.780;9.146;2022-08-18T11:24:16;3.75;;;2.83;;
7511;SDS011;9999;48.780;9.146;2022-08-18T11:26:47;4.13;;;3.35;;
7511;SDS011;9999;48.780;9.146;2022-08-18T11:29:29;3.97;;;3.03;;
7511;SDS011;9999;48.780;9.146;2022-08-18T11:31:58;4.97;;;3.05;;
7511;SDS011;9999;48.780;9.146;2022-08-18T11:34:34;6.15;;;3.28;;
7511;SDS011;9999;48.780;9.146;2022-08-18T11:37:03;5.07;;;4.03;;
7511;SDS011;9999;48.780;9.146;2022-08-18T11:39:32;3.88;;;3.20;;
7511;SDS011;9999;48.780;9.146;2022-08-18T11:42:09;4.03;;;3.60;;
7511;SDS011;9999;48.780;9.146;2022-08-18T11:44:36;4.30;;;3.50;;
7511;SDS011;9999;48.780;9.146;2022-08-18T11:47:09;4.45;;;3.13;;
7511;SDS011;9999;48.780;9.146;2022-08-18T11:49:44;2.95;;;2.67;;
7511;SDS011;9999;48.780;9.146;2022-08-18T11:52:23;3.10;;;2.78;;
7511;SDS011;9999;48.780;9.146;2022-08-18T11:54:57;5.55;;;4.13;;
7511;SDS011;9999;48.780;9.146;2022-08-18T11:57:28;3.92;;;3.47;;
7511;SDS011;9999;48.780;9.146;2022-08-18T12:00:34;4.15;;;3.60;;
7511;SDS011;9999;48.780;9.146;2022-08-18T12:03:04;5.22;;;3.88;;
7511;SDS011;9999;48.780;9.146;2022-08-18T12:05:41;3.33;;;3.03;;
7511;SDS011;9999;48.780;9.146;2022-08-18T12:08:17;3.90;;;3.50;;
7511;SDS011;9999;48.780;9.146;2022-08-18T12:10:47;4.97;;;4.18;;
7511;SDS011;9999;48.780;9.146;2022-08-18T12:13:22;4.38;;;2.95;;
7511;SDS011;9999;48.780;9.146;2022-08-18T12:18:39;4.43;;;2.95;;
7511;SDS011;9999;48.780;9.146;2022-08-18T12:21:07;3.50;;;3.20;;
7511;SDS011;9999;48.780;9.146;2022-08-18T12:23:35;3.35;;;2.85;;
7511;SDS011;9999;48.780;9.146;2022-08-18T12:26:05;4.25;;;3.22;;
7511;SDS011;9999;48.780;9.146;2022-08-18T12:28:34;3.97;;;3.40;;
7511;SDS011;9999;48.780;9.146;2022-08-18T12:31:01;4.40;;;3.50;;
7511;SDS011;9999;48.780;9.146;2022-08-18T12:33:27;5.10;;;3.78;;
7511;SDS011;9999;48.780;9.146;2022-08-18T12:35:55;6.55;;;3.60;;
7511;SDS011;9999;48.780;9.146;2022-08-18T12:38:22;4.22;;;2.95;;
7511;SDS011;9999;48.780;9.146;2022-08-18T12:40:49;5.15;;;3.13;;
7511;SDS011;9999;48.780;9.146;2022-08-18T12:43:16;4.43;;;3.85;;
7511;SDS011;9999;48.780;9.146;2022-08-18T12:45:44;3.13;;;2.83;;
7511;SDS011;9999;48.780;9.146;2022-08-18T12:48:11;5.03;;;3.83;;
7511;SDS011;9999;48.780;9.146;2022-08-18T12:50:38;4.80;;;3.50;;
7511;SDS011;9999;48.780;9.146;2022-08-18T12:53:05;3.40;;;2.72;;
7511;SDS011;9999;48.780;9.146;2022-08-18T12:55:34;3.33;;;3.03;;
7511;SDS011;9999;48.780;9.146;2022-08-18T12:58:03;4.03;;;3.10;;
7511;SDS011;9999;48.780;9.146;2022-08-18T13:00:30;3.35;;;3.05;;
7511;SDS011;9999;48.780;9.146;2022-08-18T13:02:58;3.63;;;2.75;;
7511;SDS011;9999;48.780;9.146;2022-08-18T13:05:25;3.58;;;2.65;;
7511;SDS011;9999;48.780;9.146;2022-08-18T13:07:53;3.60;;;3.05;;
7511;SDS011;9999;48.780;9.146;2022-08-18T13:10:22;3.78;;;3.00;;
7511;SDS011;9999;48.780;9.146;2022-08-18T13:12:48;3.20;;;2.90;;
7511;SDS011;9999;48.780;9.146;2022-08-18T13:15:15;3.35;;;3.03;;
7511;SDS011;9999;48.780;9.146;2022-08-18T13:17:42;4.38;;;3.05;;
7511;SDS011;9999;48.780;9.146;2022-08-18T13:20:12;3.13;;;2.83;;
7511;SDS011;9999;48.780;9.146;2022-08-18T13:22:40;3.40;;;3.10;;
7511;SDS011;9999;48.780;9.146;2022-08-18T13:25:09;5.00;;;3.15;;
7511;SDS011;9999;48.780;9.146;2022-08-18T13:27:37;3.70;;;3.40;;
7511;SDS011;9999;48.780;9.146;2022-08-18T13:30:05;4.57;;;3.60;;
7511;SDS011;9999;48.780;9.146;2022-08-18T13:32:35;3.58;;;3.00;;
7511;SDS011;9999;48.780;9.146;2022-08-18T13:35:02;5.68;;;3.50;;
7511;SDS011;9999;48.780;9.146;2022-08-18T13:37:30;3.92;;;3.40;;
7511;SDS011;9999;48.780;9.146;2022-08-18T13:39:57;3.92;;;3.40;;
7511;SDS011;9999;48.780;9.146;2022-08-18T13:42:25;4.68;;;2.97;;
7511;SDS011;9999;48.780;9.146;2022-08-18T13:44:53;5.80;;;3.40;;
7511;SDS011;9999;48.780;9.146;2022-08-18T13:47:21;3.80;;;2.90;;
7511;SDS011;9999;48.780;9.146;2022-08-18T13:49:48;4.03;;;2.90;;
7511;SDS011;9999;48.780;9.146;2022-08-18T13:52:16;3.80;;;3.00;;
7511;SDS011;9999;48.780;9.146;2022-08-18T13:54:45;3.30;;;2.80;;
7511;SDS011;9999;48.780;9.146;2022-08-18T13:57:11;3.35;;;2.80;;
7511;SDS011;9999;48.780;9.146;2022-08-18T13:59:38;2.97;;;2.70;;
7511;SDS011;9999;48.780;9.146;2022-08-18T14:02:06;3.42;;;3.13;;
7511;SDS011;9999;48.780;9.146;2022-08-18T14:04:35;3.13;;;2.75;;
7511;SDS011;9999;48.780;9.146;2022-08-18T14:07:02;3.80;;;3.15;;
7511;SDS011;9999;48.780;9.146;2022-08-18T14:09:31;2.92;;;2.67;;
7511;SDS011;9999;48.780;9.146;2022-08-18T14:11:59;4.22;;;3.13;;
7511;SDS011;9999;48.780;9.146;2022-08-18T14:14:26;4.90;;;3.38;;
7511;SDS011;9999;48.780;9.146;2022-08-18T14:16:52;3.70;;;3.15;;
7511;SDS011;9999;48.780;9.146;2022-08-18T14:19:19;3.20;;;2.78;;
7511;SDS011;9999;48.780;9.146;2022-08-18T14:22:03;3.40;;;2.70;;
7511;SDS011;9999;48.780;9.146;2022-08-18T14:24:48;3.00;;;2.78;;
7511;SDS011;9999;48.780;9.146;2022-08-18T14:27:34;5.57;;;2.88;;
7511;SDS011;9999;48.780;9.146;2022-08-18T14:30:03;3.80;;;3.10;;
7511;SDS011;9999;48.780;9.146;2022-08-18T14:32:32;2.90;;;2.65;;
7511;SDS011;9999;48.780;9.146;2022-08-18T14:35:01;3.33;;;2.42;;
7511;SDS011;9999;48.780;9.146;2022-08-18T14:37:29;3.20;;;2.88;;
7511;SDS011;9999;48.780;9.146;2022-08-18T14:39:56;2.85;;;2.53;;
7511;SDS011;9999;48.780;9.146;2022-08-18T14:42:23;3.60;;;2.80;;
7511;SDS011;9999;48.780;9.146;2022-08-18T14:44:52;3.53;;;3.17;;
7511;SDS011;9999;48.780;9.146;2022-08-18T14:47:19;3.22;;;2.90;;
7511;SDS011;9999;48.780;9.146;2022-08-18T14:49:46;2.97;;;2.67;;
7511;SDS011;9999;48.780;9.146;2022-08-18T14:52:13;3.67;;;2.90;;
7511;SDS011;9999;48.780;9.146;2022-08-18T14:54:40;3.30;;;2.70;;
7511;SDS011;9999;48.780;9.146;2022-08-18T14:57:06;4.45;;;2.70;;
7511;SDS011;9999;48.780;9.146;2022-08-18T14:59:36;3.50;;;2.97;;
7511;SDS011;9999;48.780;9.146;2022-08-18T15:02:04;4.03;;;2.97;;
7511;SDS011;9999;48.780;9.146;2022-08-18T15:04:32;4.22;;;2.90;;
7511;SDS011;9999;48.780;9.146;2022-08-18T15:06:59;3.53;;;2.92;;
7511;SDS011;9999;48.780;9.146;2022-08-18T15:09:26;6.90;;;2.70;;
7511;SDS011;9999;48.780;9.146;2022-08-18T15:11:54;3.20;;;2.53;;
7511;SDS011;9999;48.780;9.146;2022-08-18T15:14:22;4.05;;;2.83;;
7511;SDS011;9999;48.780;9.146;2022-08-18T15:16:50;3.13;;;2.83;;
7511;SDS011;9999;48.780;9.146;2022-08-18T15:19:18;3.08;;;2.78;;
7511;SDS011;9999;48.780;9.146;2022-08-18T15:21:46;3.72;;;2.50;;
7511;SDS011;9999;48.780;9.146;2022-08-18T15:24:31;3.63;;;3.33;;
7511;SDS011;9999;48.780;9.146;2022-08-18T15:27:16;3.47;;;2.72;;
7511;SDS011;9999;48.780;9.146;2022-08-18T15:29:43;2.88;;;2.60;;
7511;SDS011;9999;48.780;9.146;2022-08-18T15:32:10;4.43;;;2.97;;
7511;SDS011;9999;48.780;9.146;2022-08-18T15:34:40;3.72;;;3.03;;
7511;SDS011;9999;48.780;9.146;2022-08-18T15:37:07;3.97;;;3.05;;
7511;SDS011;9999;48.780;9.146;2022-08-18T15:39:34;3.22;;;2.92;;
7511;SDS011;9999;48.780;9.146;2022-08-18T15:42:01;3.28;;;2.67;;
7511;SDS011;9999;48.780;9.146;2022-08-18T15:44:35;4.75;;;3.53;;
7511;SDS011;9999;48.780;9.146;2022-08-18T15:47:02;4.28;;;3.25;;
7511;SDS011;9999;48.780;9.146;2022-08-18T15:49:29;3.22;;;2.92;;
7511;SDS011;9999;48.780;9.146;2022-08-18T15:51:58;3.55;;;2.83;;
7511;SDS011;9999;48.780;9.146;2022-08-18T15:54:25;3.65;;;2.92;;
7511;SDS011;9999;48.780;9.146;2022-08-18T15:56:51;4.05;;;3.03;;
7511;SDS011;9999;48.780;9.146;2022-08-18T15:59:18;4.22;;;3.30;;
7511;SDS011;9999;48.780;9.146;2022-08-18T16:01:45;6.18;;;3.30;;
7511;SDS011;9999;48.780;9.146;2022-08-18T16:04:14;3.72;;;3.05;;
7511;SDS011;9999;48.780;9.146;2022-08-18T16:06:41;3.50;;;3.20;;
7511;SDS011;9999;48.780;9.146;2022-08-18T16:09:13;4.03;;;2.95;;
7511;SDS011;9999;48.780;9.146;2022-08-18T16:11:40;4.75;;;2.97;;
7511;SDS011;9999;48.780;9.146;2022-08-18T16:14:07;5.38;;;3.08;;
7511;SDS011;9999;48.780;9.146;2022-08-18T16:16:34;4.95;;;3.78;;
7511;SDS011;9999;48.780;9.146;2022-08-18T16:19:01;3.63;;;3.33;;